Baptistown, New Jersey
Current Conditions -  °F | °C
As of 6:54 PM on Friday 24 Oct 2014 (Local Time) from KDYL Reporting Station
Clear Clear  
Wind Chill: 61°   Ceiling: Unl
Heat Index: 61°   Visibility: 10mi
Dew Point: 41°   Wind: 6mph
Humidity: 48%   Direction: 320°NW
Pressure: 29.83"   Gusts: NA
Location:  40.52°N, 75.01°W
Report Text: KDYL 242254Z AUTO 32005KT 10SM CLR 16/05 A2983 RMK AO2 SLP102 T01610050
Loading
Personal Weather Stations






























Interactive Weather Map
Tropical Storm Tracking
New forecast layout! Learn more

10-Day Weather Forecast

Advertisements
Track Severe Weather on mobile